sensor_id;sensor_type;location;lat;lon;timestamp;P1;durP1;ratioP1;P2;durP2;ratioP2
15776;SDS011;7989;51.198;6.676;2023-11-21T00:01:20;6.70;;;5.40;;
15776;SDS011;7989;51.198;6.676;2023-11-21T00:03:46;11.38;;;5.57;;
15776;SDS011;7989;51.198;6.676;2023-11-21T00:06:13;8.18;;;5.50;;
15776;SDS011;7989;51.198;6.676;2023-11-21T00:08:40;6.88;;;5.03;;
15776;SDS011;7989;51.198;6.676;2023-11-21T00:11:07;8.30;;;4.95;;
15776;SDS011;7989;51.198;6.676;2023-11-21T00:13:34;11.10;;;9.10;;
15776;SDS011;7989;51.198;6.676;2023-11-21T00:16:00;7.97;;;5.40;;
15776;SDS011;7989;51.198;6.676;2023-11-21T00:18:29;9.32;;;5.03;;
15776;SDS011;7989;51.198;6.676;2023-11-21T00:20:55;8.63;;;5.43;;
15776;SDS011;7989;51.198;6.676;2023-11-21T00:23:24;9.32;;;6.82;;
15776;SDS011;7989;51.198;6.676;2023-11-21T00:25:51;11.63;;;5.30;;
15776;SDS011;7989;51.198;6.676;2023-11-21T00:28:18;7.90;;;6.00;;
15776;SDS011;7989;51.198;6.676;2023-11-21T00:30:44;9.85;;;5.95;;
15776;SDS011;7989;51.198;6.676;2023-11-21T00:33:11;8.05;;;5.82;;
15776;SDS011;7989;51.198;6.676;2023-11-21T00:35:40;7.68;;;5.65;;
15776;SDS011;7989;51.198;6.676;2023-11-21T00:38:07;9.55;;;5.80;;
15776;SDS011;7989;51.198;6.676;2023-11-21T00:40:34;7.63;;;5.85;;
15776;SDS011;7989;51.198;6.676;2023-11-21T00:43:01;6.60;;;5.75;;
15776;SDS011;7989;51.198;6.676;2023-11-21T00:45:28;11.32;;;7.82;;
15776;SDS011;7989;51.198;6.676;2023-11-21T00:47:55;9.20;;;7.90;;
15776;SDS011;7989;51.198;6.676;2023-11-21T00:50:23;13.15;;;7.85;;
15776;SDS011;7989;51.198;6.676;2023-11-21T00:52:52;9.98;;;7.70;;
15776;SDS011;7989;51.198;6.676;2023-11-21T00:55:19;9.02;;;7.28;;
15776;SDS011;7989;51.198;6.676;2023-11-21T00:57:46;7.25;;;6.20;;
15776;SDS011;7989;51.198;6.676;2023-11-21T01:00:13;7.82;;;6.50;;
15776;SDS011;7989;51.198;6.676;2023-11-21T01:02:42;13.18;;;8.07;;
15776;SDS011;7989;51.198;6.676;2023-11-21T01:05:09;8.55;;;7.63;;
15776;SDS011;7989;51.198;6.676;2023-11-21T01:07:36;11.23;;;7.32;;
15776;SDS011;7989;51.198;6.676;2023-11-21T01:10:05;11.50;;;7.70;;
15776;SDS011;7989;51.198;6.676;2023-11-21T01:12:34;8.02;;;7.20;;
15776;SDS011;7989;51.198;6.676;2023-11-21T01:15:01;7.93;;;7.13;;
15776;SDS011;7989;51.198;6.676;2023-11-21T01:17:28;10.23;;;7.13;;
15776;SDS011;7989;51.198;6.676;2023-11-21T01:19:55;7.97;;;6.90;;
15776;SDS011;7989;51.198;6.676;2023-11-21T01:22:22;10.35;;;7.93;;
15776;SDS011;7989;51.198;6.676;2023-11-21T01:24:51;10.23;;;7.60;;
15776;SDS011;7989;51.198;6.676;2023-11-21T01:27:19;10.88;;;7.30;;
15776;SDS011;7989;51.198;6.676;2023-11-21T01:29:46;10.48;;;6.88;;
15776;SDS011;7989;51.198;6.676;2023-11-21T01:32:13;7.32;;;6.63;;
15776;SDS011;7989;51.198;6.676;2023-11-21T01:34:39;12.27;;;7.45;;
15776;SDS011;7989;51.198;6.676;2023-11-21T01:37:06;8.57;;;7.15;;
15776;SDS011;7989;51.198;6.676;2023-11-21T01:39:34;9.57;;;7.40;;
15776;SDS011;7989;51.198;6.676;2023-11-21T01:42:04;10.88;;;8.68;;
15776;SDS011;7989;51.198;6.676;2023-11-21T01:44:34;10.73;;;8.25;;
15776;SDS011;7989;51.198;6.676;2023-11-21T01:47:01;10.20;;;7.55;;
15776;SDS011;7989;51.198;6.676;2023-11-21T01:49:30;9.55;;;7.88;;
15776;SDS011;7989;51.198;6.676;2023-11-21T01:51:57;10.10;;;8.00;;
15776;SDS011;7989;51.198;6.676;2023-11-21T01:54:25;9.73;;;8.52;;
15776;SDS011;7989;51.198;6.676;2023-11-21T01:56:52;10.75;;;8.63;;
15776;SDS011;7989;51.198;6.676;2023-11-21T01:59:19;11.13;;;8.30;;
15776;SDS011;7989;51.198;6.676;2023-11-21T02:01:48;9.32;;;8.43;;
15776;SDS011;7989;51.198;6.676;2023-11-21T02:04:16;9.93;;;7.97;;
15776;SDS011;7989;51.198;6.676;2023-11-21T02:06:44;10.40;;;9.23;;
15776;SDS011;7989;51.198;6.676;2023-11-21T02:09:11;9.73;;;7.63;;
15776;SDS011;7989;51.198;6.676;2023-11-21T02:11:40;9.38;;;7.93;;
15776;SDS011;7989;51.198;6.676;2023-11-21T02:14:07;8.55;;;7.57;;
15776;SDS011;7989;51.198;6.676;2023-11-21T02:16:34;9.30;;;8.32;;
15776;SDS011;7989;51.198;6.676;2023-11-21T02:19:03;11.98;;;8.63;;
15776;SDS011;7989;51.198;6.676;2023-11-21T02:21:34;12.43;;;9.80;;
15776;SDS011;7989;51.198;6.676;2023-11-21T02:24:03;9.57;;;8.57;;
15776;SDS011;7989;51.198;6.676;2023-11-21T02:26:30;10.25;;;8.90;;
15776;SDS011;7989;51.198;6.676;2023-11-21T02:28:57;13.60;;;9.25;;
15776;SDS011;7989;51.198;6.676;2023-11-21T02:31:24;9.73;;;8.75;;
15776;SDS011;7989;51.198;6.676;2023-11-21T02:33:52;10.60;;;9.50;;
15776;SDS011;7989;51.198;6.676;2023-11-21T02:36:19;10.75;;;9.68;;
15776;SDS011;7989;51.198;6.676;2023-11-21T02:38:46;12.82;;;9.65;;
15776;SDS011;7989;51.198;6.676;2023-11-21T02:41:14;11.05;;;9.90;;
15776;SDS011;7989;51.198;6.676;2023-11-21T02:43:41;9.93;;;8.93;;
15776;SDS011;7989;51.198;6.676;2023-11-21T02:46:08;14.45;;;10.93;;
15776;SDS011;7989;51.198;6.676;2023-11-21T02:48:35;15.02;;;13.52;;
15776;SDS011;7989;51.198;6.676;2023-11-21T02:51:02;14.00;;;11.50;;
15776;SDS011;7989;51.198;6.676;2023-11-21T02:53:29;12.18;;;10.75;;
15776;SDS011;7989;51.198;6.676;2023-11-21T02:55:56;11.15;;;10.05;;
15776;SDS011;7989;51.198;6.676;2023-11-21T02:58:24;12.70;;;11.50;;
15776;SDS011;7989;51.198;6.676;2023-11-21T03:00:51;15.40;;;13.02;;
15776;SDS011;7989;51.198;6.676;2023-11-21T03:03:19;17.35;;;15.55;;
15776;SDS011;7989;51.198;6.676;2023-11-21T03:05:46;13.52;;;11.43;;
15776;SDS011;7989;51.198;6.676;2023-11-21T03:08:12;15.57;;;11.57;;
15776;SDS011;7989;51.198;6.676;2023-11-21T03:10:39;19.40;;;16.83;;
15776;SDS011;7989;51.198;6.676;2023-11-21T03:13:06;15.10;;;12.38;;
15776;SDS011;7989;51.198;6.676;2023-11-21T03:15:34;13.07;;;11.90;;
15776;SDS011;7989;51.198;6.676;2023-11-21T03:18:01;17.35;;;13.88;;
15776;SDS011;7989;51.198;6.676;2023-11-21T03:20:30;18.50;;;16.70;;
15776;SDS011;7989;51.198;6.676;2023-11-21T03:22:56;14.45;;;12.60;;
15776;SDS011;7989;51.198;6.676;2023-11-21T03:25:24;15.50;;;13.88;;
15776;SDS011;7989;51.198;6.676;2023-11-21T03:27:51;15.30;;;13.90;;
15776;SDS011;7989;51.198;6.676;2023-11-21T03:30:18;17.33;;;13.75;;
15776;SDS011;7989;51.198;6.676;2023-11-21T03:32:47;16.55;;;14.85;;
15776;SDS011;7989;51.198;6.676;2023-11-21T03:35:14;13.85;;;12.40;;
15776;SDS011;7989;51.198;6.676;2023-11-21T03:37:41;14.45;;;13.00;;
15776;SDS011;7989;51.198;6.676;2023-11-21T03:40:09;17.70;;;16.00;;
15776;SDS011;7989;51.198;6.676;2023-11-21T03:42:37;15.10;;;13.45;;
15776;SDS011;7989;51.198;6.676;2023-11-21T03:45:04;15.02;;;13.43;;
15776;SDS011;7989;51.198;6.676;2023-11-21T03:47:32;15.15;;;13.70;;
15776;SDS011;7989;51.198;6.676;2023-11-21T03:50:00;13.55;;;12.23;;
15776;SDS011;7989;51.198;6.676;2023-11-21T03:52:28;13.45;;;12.30;;
15776;SDS011;7989;51.198;6.676;2023-11-21T03:54:55;14.30;;;12.73;;
15776;SDS011;7989;51.198;6.676;2023-11-21T03:57:22;16.60;;;12.95;;
15776;SDS011;7989;51.198;6.676;2023-11-21T03:59:48;14.73;;;13.23;;
15776;SDS011;7989;51.198;6.676;2023-11-21T04:02:15;13.73;;;12.43;;
15776;SDS011;7989;51.198;6.676;2023-11-21T04:04:42;14.55;;;13.13;;
15776;SDS011;7989;51.198;6.676;2023-11-21T04:07:10;14.85;;;12.77;;
15776;SDS011;7989;51.198;6.676;2023-11-21T04:09:38;16.15;;;13.85;;
15776;SDS011;7989;51.198;6.676;2023-11-21T04:12:06;14.55;;;13.10;;
15776;SDS011;7989;51.198;6.676;2023-11-21T04:14:34;16.95;;;14.25;;
15776;SDS011;7989;51.198;6.676;2023-11-21T04:17:01;14.77;;;13.43;;
15776;SDS011;7989;51.198;6.676;2023-11-21T04:19:29;16.45;;;14.45;;
15776;SDS011;7989;51.198;6.676;2023-11-21T04:21:56;14.18;;;12.75;;
15776;SDS011;7989;51.198;6.676;2023-11-21T04:24:24;16.23;;;14.55;;
15776;SDS011;7989;51.198;6.676;2023-11-21T04:26:51;16.73;;;15.13;;
15776;SDS011;7989;51.198;6.676;2023-11-21T04:29:18;17.00;;;14.50;;
15776;SDS011;7989;51.198;6.676;2023-11-21T04:31:45;16.80;;;15.10;;
15776;SDS011;7989;51.198;6.676;2023-11-21T04:34:14;16.27;;;14.60;;
15776;SDS011;7989;51.198;6.676;2023-11-21T04:36:41;16.40;;;14.77;;
15776;SDS011;7989;51.198;6.676;2023-11-21T04:39:07;16.98;;;15.35;;
15776;SDS011;7989;51.198;6.676;2023-11-21T04:41:36;15.25;;;13.85;;
15776;SDS011;7989;51.198;6.676;2023-11-21T04:44:04;16.50;;;14.77;;
15776;SDS011;7989;51.198;6.676;2023-11-21T04:46:31;15.35;;;13.70;;
15776;SDS011;7989;51.198;6.676;2023-11-21T04:48:58;15.30;;;13.85;;
15776;SDS011;7989;51.198;6.676;2023-11-21T04:51:25;16.35;;;14.75;;
15776;SDS011;7989;51.198;6.676;2023-11-21T04:53:52;18.58;;;14.52;;
15776;SDS011;7989;51.198;6.676;2023-11-21T04:56:19;18.42;;;14.45;;
15776;SDS011;7989;51.198;6.676;2023-11-21T04:58:47;17.90;;;14.80;;
15776;SDS011;7989;51.198;6.676;2023-11-21T05:01:14;16.77;;;15.18;;
15776;SDS011;7989;51.198;6.676;2023-11-21T05:03:41;15.90;;;14.48;;
15776;SDS011;7989;51.198;6.676;2023-11-21T05:06:09;16.35;;;14.52;;
15776;SDS011;7989;51.198;6.676;2023-11-21T05:08:36;16.40;;;14.57;;
15776;SDS011;7989;51.198;6.676;2023-11-21T05:11:03;16.00;;;14.52;;
15776;SDS011;7989;51.198;6.676;2023-11-21T05:13:31;15.18;;;13.65;;
15776;SDS011;7989;51.198;6.676;2023-11-21T05:16:01;16.52;;;14.90;;
15776;SDS011;7989;51.198;6.676;2023-11-21T05:18:30;16.52;;;14.93;;
15776;SDS011;7989;51.198;6.676;2023-11-21T05:20:57;16.08;;;14.65;;
15776;SDS011;7989;51.198;6.676;2023-11-21T05:23:24;16.33;;;14.63;;
15776;SDS011;7989;51.198;6.676;2023-11-21T05:25:51;17.95;;;13.95;;
15776;SDS011;7989;51.198;6.676;2023-11-21T05:28:18;18.73;;;16.95;;
15776;SDS011;7989;51.198;6.676;2023-11-21T05:30:44;19.13;;;16.90;;
15776;SDS011;7989;51.198;6.676;2023-11-21T05:33:12;23.23;;;20.45;;
15776;SDS011;7989;51.198;6.676;2023-11-21T05:35:39;21.00;;;18.88;;
15776;SDS011;7989;51.198;6.676;2023-11-21T05:38:06;17.63;;;15.77;;
15776;SDS011;7989;51.198;6.676;2023-11-21T05:40:33;17.02;;;15.30;;
15776;SDS011;7989;51.198;6.676;2023-11-21T05:43:00;18.08;;;16.17;;
15776;SDS011;7989;51.198;6.676;2023-11-21T05:45:27;17.33;;;15.73;;
15776;SDS011;7989;51.198;6.676;2023-11-21T05:47:55;16.60;;;15.10;;
15776;SDS011;7989;51.198;6.676;2023-11-21T05:50:23;16.85;;;15.15;;
15776;SDS011;7989;51.198;6.676;2023-11-21T05:52:50;20.45;;;18.42;;
15776;SDS011;7989;51.198;6.676;2023-11-21T05:55:16;19.20;;;17.35;;
15776;SDS011;7989;51.198;6.676;2023-11-21T05:57:46;21.67;;;19.30;;
15776;SDS011;7989;51.198;6.676;2023-11-21T06:00:13;19.80;;;17.73;;
15776;SDS011;7989;51.198;6.676;2023-11-21T06:02:45;29.73;;;26.70;;
15776;SDS011;7989;51.198;6.676;2023-11-21T06:05:12;21.23;;;19.08;;
15776;SDS011;7989;51.198;6.676;2023-11-21T06:07:40;20.02;;;17.95;;
15776;SDS011;7989;51.198;6.676;2023-11-21T06:10:07;22.13;;;19.23;;
15776;SDS011;7989;51.198;6.676;2023-11-21T06:12:36;22.27;;;18.52;;
15776;SDS011;7989;51.198;6.676;2023-11-21T06:15:03;21.63;;;19.33;;
15776;SDS011;7989;51.198;6.676;2023-11-21T06:17:33;22.02;;;19.75;;
15776;SDS011;7989;51.198;6.676;2023-11-21T06:20:01;22.98;;;19.27;;
15776;SDS011;7989;51.198;6.676;2023-11-21T06:22:29;24.63;;;20.52;;
15776;SDS011;7989;51.198;6.676;2023-11-21T06:24:57;21.02;;;18.83;;
15776;SDS011;7989;51.198;6.676;2023-11-21T06:27:24;28.40;;;23.73;;
15776;SDS011;7989;51.198;6.676;2023-11-21T06:29:51;24.70;;;22.10;;
15776;SDS011;7989;51.198;6.676;2023-11-21T06:32:18;25.73;;;22.83;;
15776;SDS011;7989;51.198;6.676;2023-11-21T06:34:45;26.30;;;21.90;;
15776;SDS011;7989;51.198;6.676;2023-11-21T06:37:12;27.98;;;22.98;;
15776;SDS011;7989;51.198;6.676;2023-11-21T06:39:39;27.98;;;23.70;;
15776;SDS011;7989;51.198;6.676;2023-11-21T06:42:07;30.48;;;25.95;;
15776;SDS011;7989;51.198;6.676;2023-11-21T06:44:34;29.65;;;22.95;;
15776;SDS011;7989;51.198;6.676;2023-11-21T06:47:02;25.38;;;22.65;;
15776;SDS011;7989;51.198;6.676;2023-11-21T06:49:29;29.42;;;23.70;;
15776;SDS011;7989;51.198;6.676;2023-11-21T06:51:56;34.22;;;26.20;;
15776;SDS011;7989;51.198;6.676;2023-11-21T06:54:23;27.55;;;24.58;;
15776;SDS011;7989;51.198;6.676;2023-11-21T06:56:50;30.42;;;24.17;;
15776;SDS011;7989;51.198;6.676;2023-11-21T06:59:19;29.30;;;26.17;;
15776;SDS011;7989;51.198;6.676;2023-11-21T07:01:46;28.42;;;22.77;;
15776;SDS011;7989;51.198;6.676;2023-11-21T07:04:13;26.83;;;23.88;;
15776;SDS011;7989;51.198;6.676;2023-11-21T07:06:40;27.92;;;24.00;;
15776;SDS011;7989;51.198;6.676;2023-11-21T07:09:08;27.55;;;24.13;;
15776;SDS011;7989;51.198;6.676;2023-11-21T07:11:36;27.88;;;23.70;;
15776;SDS011;7989;51.198;6.676;2023-11-21T07:14:03;31.27;;;24.48;;
15776;SDS011;7989;51.198;6.676;2023-11-21T07:16:33;26.70;;;21.70;;
15776;SDS011;7989;51.198;6.676;2023-11-21T07:19:02;29.83;;;23.52;;
15776;SDS011;7989;51.198;6.676;2023-11-21T07:21:31;31.00;;;24.60;;
15776;SDS011;7989;51.198;6.676;2023-11-21T07:23:58;28.63;;;23.58;;
15776;SDS011;7989;51.198;6.676;2023-11-21T07:26:24;26.52;;;22.55;;
15776;SDS011;7989;51.198;6.676;2023-11-21T07:28:51;25.65;;;22.95;;
15776;SDS011;7989;51.198;6.676;2023-11-21T07:31:18;28.60;;;24.63;;
15776;SDS011;7989;51.198;6.676;2023-11-21T07:33:47;27.95;;;23.58;;
15776;SDS011;7989;51.198;6.676;2023-11-21T07:36:14;27.52;;;22.35;;
15776;SDS011;7989;51.198;6.676;2023-11-21T07:38:43;27.42;;;24.52;;
15776;SDS011;7989;51.198;6.676;2023-11-21T07:41:10;29.27;;;25.55;;
15776;SDS011;7989;51.198;6.676;2023-11-21T07:43:40;30.98;;;25.38;;
15776;SDS011;7989;51.198;6.676;2023-11-21T07:46:08;28.90;;;24.73;;
15776;SDS011;7989;51.198;6.676;2023-11-21T07:48:34;31.40;;;24.92;;
15776;SDS011;7989;51.198;6.676;2023-11-21T07:51:03;44.85;;;31.35;;
15776;SDS011;7989;51.198;6.676;2023-11-21T07:53:30;34.88;;;27.05;;
15776;SDS011;7989;51.198;6.676;2023-11-21T07:55:56;35.30;;;26.50;;
15776;SDS011;7989;51.198;6.676;2023-11-21T07:58:24;32.35;;;27.10;;
15776;SDS011;7989;51.198;6.676;2023-11-21T08:00:51;34.17;;;27.27;;
15776;SDS011;7989;51.198;6.676;2023-11-21T08:03:18;38.80;;;28.63;;
15776;SDS011;7989;51.198;6.676;2023-11-21T08:05:44;31.98;;;26.40;;
15776;SDS011;7989;51.198;6.676;2023-11-21T08:08:13;34.95;;;26.73;;
15776;SDS011;7989;51.198;6.676;2023-11-21T08:10:40;47.33;;;31.75;;
15776;SDS011;7989;51.198;6.676;2023-11-21T08:13:07;32.35;;;25.60;;
15776;SDS011;7989;51.198;6.676;2023-11-21T08:15:39;37.60;;;26.48;;
15776;SDS011;7989;51.198;6.676;2023-11-21T08:18:10;34.63;;;25.17;;
15776;SDS011;7989;51.198;6.676;2023-11-21T08:20:37;33.65;;;25.63;;
15776;SDS011;7989;51.198;6.676;2023-11-21T08:23:05;32.42;;;25.77;;
15776;SDS011;7989;51.198;6.676;2023-11-21T08:25:33;37.38;;;24.50;;
15776;SDS011;7989;51.198;6.676;2023-11-21T08:28:00;41.42;;;29.05;;
15776;SDS011;7989;51.198;6.676;2023-11-21T08:30:27;35.67;;;25.80;;
15776;SDS011;7989;51.198;6.676;2023-11-21T08:32:55;34.72;;;26.05;;
15776;SDS011;7989;51.198;6.676;2023-11-21T08:35:23;35.85;;;26.15;;
15776;SDS011;7989;51.198;6.676;2023-11-21T08:37:51;36.60;;;28.40;;
15776;SDS011;7989;51.198;6.676;2023-11-21T08:40:18;35.47;;;27.23;;
15776;SDS011;7989;51.198;6.676;2023-11-21T08:42:47;33.65;;;27.15;;
15776;SDS011;7989;51.198;6.676;2023-11-21T08:45:16;43.60;;;28.88;;
15776;SDS011;7989;51.198;6.676;2023-11-21T08:47:43;38.95;;;28.60;;
15776;SDS011;7989;51.198;6.676;2023-11-21T08:50:10;43.55;;;29.13;;
15776;SDS011;7989;51.198;6.676;2023-11-21T08:52:38;38.15;;;26.67;;
15776;SDS011;7989;51.198;6.676;2023-11-21T08:55:05;37.33;;;26.35;;
15776;SDS011;7989;51.198;6.676;2023-11-21T08:57:33;48.40;;;30.83;;
15776;SDS011;7989;51.198;6.676;2023-11-21T09:00:03;49.72;;;30.85;;
15776;SDS011;7989;51.198;6.676;2023-11-21T09:02:32;39.63;;;27.90;;
15776;SDS011;7989;51.198;6.676;2023-11-21T09:05:00;48.58;;;30.95;;
15776;SDS011;7989;51.198;6.676;2023-11-21T09:07:28;42.63;;;27.75;;
15776;SDS011;7989;51.198;6.676;2023-11-21T09:09:55;52.42;;;30.88;;
15776;SDS011;7989;51.198;6.676;2023-11-21T09:12:21;44.13;;;30.13;;
15776;SDS011;7989;51.198;6.676;2023-11-21T09:14:49;37.67;;;27.20;;
15776;SDS011;7989;51.198;6.676;2023-11-21T09:17:18;46.20;;;30.17;;
15776;SDS011;7989;51.198;6.676;2023-11-21T09:19:44;43.10;;;28.98;;
15776;SDS011;7989;51.198;6.676;2023-11-21T09:22:15;41.10;;;29.55;;
15776;SDS011;7989;51.198;6.676;2023-11-21T09:24:42;44.63;;;30.83;;
15776;SDS011;7989;51.198;6.676;2023-11-21T09:27:08;43.05;;;28.85;;
15776;SDS011;7989;51.198;6.676;2023-11-21T09:29:36;38.65;;;26.83;;
15776;SDS011;7989;51.198;6.676;2023-11-21T09:32:03;39.67;;;28.63;;
15776;SDS011;7989;51.198;6.676;2023-11-21T09:34:33;45.03;;;29.60;;
15776;SDS011;7989;51.198;6.676;2023-11-21T09:37:01;44.28;;;28.90;;
15776;SDS011;7989;51.198;6.676;2023-11-21T09:39:30;41.15;;;29.90;;
15776;SDS011;7989;51.198;6.676;2023-11-21T09:41:59;45.53;;;29.65;;
15776;SDS011;7989;51.198;6.676;2023-11-21T09:44:35;42.03;;;29.58;;
15776;SDS011;7989;51.198;6.676;2023-11-21T09:47:07;36.40;;;27.88;;
15776;SDS011;7989;51.198;6.676;2023-11-21T09:49:38;36.38;;;28.20;;
15776;SDS011;7989;51.198;6.676;2023-11-21T09:52:05;38.42;;;28.08;;
15776;SDS011;7989;51.198;6.676;2023-11-21T09:54:35;46.15;;;30.23;;
15776;SDS011;7989;51.198;6.676;2023-11-21T09:57:02;49.53;;;32.95;;
15776;SDS011;7989;51.198;6.676;2023-11-21T09:59:30;48.58;;;31.70;;
15776;SDS011;7989;51.198;6.676;2023-11-21T10:01:58;38.78;;;28.85;;
15776;SDS011;7989;51.198;6.676;2023-11-21T10:04:25;41.03;;;27.95;;
15776;SDS011;7989;51.198;6.676;2023-11-21T10:06:53;37.15;;;27.38;;
15776;SDS011;7989;51.198;6.676;2023-11-21T10:09:21;38.03;;;26.75;;
15776;SDS011;7989;51.198;6.676;2023-11-21T10:11:52;37.05;;;26.40;;
15776;SDS011;7989;51.198;6.676;2023-11-21T10:14:19;35.47;;;26.20;;
15776;SDS011;7989;51.198;6.676;2023-11-21T10:16:54;36.45;;;26.08;;
15776;SDS011;7989;51.198;6.676;2023-11-21T10:19:22;33.58;;;24.80;;
15776;SDS011;7989;51.198;6.676;2023-11-21T10:21:49;32.17;;;24.27;;
15776;SDS011;7989;51.198;6.676;2023-11-21T10:24:19;29.80;;;23.05;;
15776;SDS011;7989;51.198;6.676;2023-11-21T10:26:46;37.80;;;27.55;;
15776;SDS011;7989;51.198;6.676;2023-11-21T10:29:14;32.78;;;25.75;;
15776;SDS011;7989;51.198;6.676;2023-11-21T10:31:41;36.25;;;26.73;;
15776;SDS011;7989;51.198;6.676;2023-11-21T10:34:13;34.42;;;26.58;;
15776;SDS011;7989;51.198;6.676;2023-11-21T10:36:40;32.55;;;24.80;;
15776;SDS011;7989;51.198;6.676;2023-11-21T10:39:07;35.05;;;27.00;;
15776;SDS011;7989;51.198;6.676;2023-11-21T10:41:37;39.28;;;28.10;;
15776;SDS011;7989;51.198;6.676;2023-11-21T10:44:04;33.85;;;25.40;;
15776;SDS011;7989;51.198;6.676;2023-11-21T10:46:34;31.27;;;23.73;;
15776;SDS011;7989;51.198;6.676;2023-11-21T10:49:01;32.83;;;24.40;;
15776;SDS011;7989;51.198;6.676;2023-11-21T10:51:28;28.67;;;22.85;;
15776;SDS011;7989;51.198;6.676;2023-11-21T10:53:55;33.05;;;24.15;;
15776;SDS011;7989;51.198;6.676;2023-11-21T10:56:23;31.00;;;23.85;;
15776;SDS011;7989;51.198;6.676;2023-11-21T10:58:52;28.80;;;22.38;;
15776;SDS011;7989;51.198;6.676;2023-11-21T11:01:19;33.42;;;24.42;;
15776;SDS011;7989;51.198;6.676;2023-11-21T11:03:48;39.10;;;24.73;;
15776;SDS011;7989;51.198;6.676;2023-11-21T11:06:19;28.38;;;23.02;;
15776;SDS011;7989;51.198;6.676;2023-11-21T11:08:47;26.70;;;22.10;;
15776;SDS011;7989;51.198;6.676;2023-11-21T11:11:14;32.92;;;24.80;;
15776;SDS011;7989;51.198;6.676;2023-11-21T11:13:43;30.42;;;22.60;;
15776;SDS011;7989;51.198;6.676;2023-11-21T11:16:12;27.08;;;21.92;;
15776;SDS011;7989;51.198;6.676;2023-11-21T11:18:42;29.90;;;21.58;;
15776;SDS011;7989;51.198;6.676;2023-11-21T11:21:14;24.98;;;22.23;;
15776;SDS011;7989;51.198;6.676;2023-11-21T11:23:53;32.95;;;23.20;;
15776;SDS011;7989;51.198;6.676;2023-11-21T11:26:35;32.97;;;23.15;;
15776;SDS011;7989;51.198;6.676;2023-11-21T11:29:10;29.98;;;23.05;;
15776;SDS011;7989;51.198;6.676;2023-11-21T11:31:50;28.33;;;22.70;;
15776;SDS011;7989;51.198;6.676;2023-11-21T11:34:30;32.97;;;24.40;;
15776;SDS011;7989;51.198;6.676;2023-11-21T11:37:00;28.40;;;24.30;;
15776;SDS011;7989;51.198;6.676;2023-11-21T11:39:29;34.70;;;24.05;;
15776;SDS011;7989;51.198;6.676;2023-11-21T11:41:57;32.83;;;21.85;;
15776;SDS011;7989;51.198;6.676;2023-11-21T11:47:19;29.70;;;23.00;;
15776;SDS011;7989;51.198;6.676;2023-11-21T11:50:00;35.70;;;24.70;;
15776;SDS011;7989;51.198;6.676;2023-11-21T11:52:32;33.13;;;24.58;;
15776;SDS011;7989;51.198;6.676;2023-11-21T11:55:03;37.53;;;25.95;;
15776;SDS011;7989;51.198;6.676;2023-11-21T11:57:32;36.70;;;25.42;;
15776;SDS011;7989;51.198;6.676;2023-11-21T12:00:06;33.78;;;24.83;;
15776;SDS011;7989;51.198;6.676;2023-11-21T12:02:42;28.25;;;21.05;;
15776;SDS011;7989;51.198;6.676;2023-11-21T12:05:13;24.25;;;21.02;;
15776;SDS011;7989;51.198;6.676;2023-11-21T12:07:46;25.08;;;20.63;;
15776;SDS011;7989;51.198;6.676;2023-11-21T12:10:14;27.00;;;20.30;;
15776;SDS011;7989;51.198;6.676;2023-11-21T12:12:46;31.90;;;22.33;;
15776;SDS011;7989;51.198;6.676;2023-11-21T12:15:14;30.13;;;23.25;;
15776;SDS011;7989;51.198;6.676;2023-11-21T12:17:43;33.00;;;22.92;;
15776;SDS011;7989;51.198;6.676;2023-11-21T12:20:11;21.95;;;19.48;;
15776;SDS011;7989;51.198;6.676;2023-11-21T12:22:42;27.85;;;20.92;;
15776;SDS011;7989;51.198;6.676;2023-11-21T12:25:12;29.88;;;21.05;;
15776;SDS011;7989;51.198;6.676;2023-11-21T12:27:41;29.45;;;21.77;;
15776;SDS011;7989;51.198;6.676;2023-11-21T12:30:10;26.90;;;21.00;;
15776;SDS011;7989;51.198;6.676;2023-11-21T12:32:40;26.92;;;21.45;;
15776;SDS011;7989;51.198;6.676;2023-11-21T12:35:09;32.42;;;23.35;;
15776;SDS011;7989;51.198;6.676;2023-11-21T12:37:36;29.13;;;21.73;;
15776;SDS011;7989;51.198;6.676;2023-11-21T12:40:05;27.25;;;20.42;;
15776;SDS011;7989;51.198;6.676;2023-11-21T12:42:33;27.70;;;21.02;;
15776;SDS011;7989;51.198;6.676;2023-11-21T12:45:10;28.73;;;21.90;;
15776;SDS011;7989;51.198;6.676;2023-11-21T12:47:46;28.90;;;21.75;;
15776;SDS011;7989;51.198;6.676;2023-11-21T12:50:14;25.55;;;21.65;;
15776;SDS011;7989;51.198;6.676;2023-11-21T12:52:41;26.35;;;22.77;;
15776;SDS011;7989;51.198;6.676;2023-11-21T12:55:13;34.17;;;24.23;;
15776;SDS011;7989;51.198;6.676;2023-11-21T12:57:42;28.23;;;23.40;;
15776;SDS011;7989;51.198;6.676;2023-11-21T13:00:10;32.88;;;24.10;;
15776;SDS011;7989;51.198;6.676;2023-11-21T13:02:52;31.60;;;23.73;;
15776;SDS011;7989;51.198;6.676;2023-11-21T13:05:26;32.90;;;23.23;;
15776;SDS011;7989;51.198;6.676;2023-11-21T13:07:54;36.53;;;25.98;;
15776;SDS011;7989;51.198;6.676;2023-11-21T13:10:23;27.77;;;22.58;;
15776;SDS011;7989;51.198;6.676;2023-11-21T13:12:54;27.17;;;22.85;;
15776;SDS011;7989;51.198;6.676;2023-11-21T13:15:23;32.33;;;23.98;;
15776;SDS011;7989;51.198;6.676;2023-11-21T13:17:51;31.08;;;24.25;;
15776;SDS011;7989;51.198;6.676;2023-11-21T13:20:18;35.92;;;24.98;;
15776;SDS011;7989;51.198;6.676;2023-11-21T13:22:46;27.02;;;20.80;;
15776;SDS011;7989;51.198;6.676;2023-11-21T13:25:15;28.95;;;20.33;;
15776;SDS011;7989;51.198;6.676;2023-11-21T13:27:44;25.45;;;17.38;;
15776;SDS011;7989;51.198;6.676;2023-11-21T13:30:12;22.80;;;17.45;;
15776;SDS011;7989;51.198;6.676;2023-11-21T13:32:42;24.60;;;16.20;;
15776;SDS011;7989;51.198;6.676;2023-11-21T13:35:11;25.50;;;16.40;;
15776;SDS011;7989;51.198;6.676;2023-11-21T13:37:46;19.48;;;15.07;;
15776;SDS011;7989;51.198;6.676;2023-11-21T13:40:20;24.95;;;17.40;;
15776;SDS011;7989;51.198;6.676;2023-11-21T13:42:51;28.40;;;18.80;;
15776;SDS011;7989;51.198;6.676;2023-11-21T13:45:20;28.17;;;18.02;;
15776;SDS011;7989;51.198;6.676;2023-11-21T13:47:48;21.45;;;15.88;;
15776;SDS011;7989;51.198;6.676;2023-11-21T13:50:18;23.45;;;17.27;;
15776;SDS011;7989;51.198;6.676;2023-11-21T13:52:49;25.98;;;17.25;;
15776;SDS011;7989;51.198;6.676;2023-11-21T13:55:18;23.38;;;17.95;;
15776;SDS011;7989;51.198;6.676;2023-11-21T13:57:47;23.30;;;16.10;;
15776;SDS011;7989;51.198;6.676;2023-11-21T14:00:16;24.20;;;17.92;;
15776;SDS011;7989;51.198;6.676;2023-11-21T14:03:01;25.05;;;18.00;;
15776;SDS011;7989;51.198;6.676;2023-11-21T14:05:34;25.77;;;19.00;;
15776;SDS011;7989;51.198;6.676;2023-11-21T14:08:01;21.42;;;16.73;;
15776;SDS011;7989;51.198;6.676;2023-11-21T14:10:30;26.05;;;20.30;;
15776;SDS011;7989;51.198;6.676;2023-11-21T14:13:05;28.27;;;20.58;;
15776;SDS011;7989;51.198;6.676;2023-11-21T14:15:32;28.98;;;20.20;;
15776;SDS011;7989;51.198;6.676;2023-11-21T14:18:03;28.92;;;21.50;;
15776;SDS011;7989;51.198;6.676;2023-11-21T14:20:33;29.55;;;21.13;;
15776;SDS011;7989;51.198;6.676;2023-11-21T14:23:02;32.10;;;23.50;;
15776;SDS011;7989;51.198;6.676;2023-11-21T14:25:32;33.58;;;25.65;;
15776;SDS011;7989;51.198;6.676;2023-11-21T14:28:02;34.80;;;26.25;;
15776;SDS011;7989;51.198;6.676;2023-11-21T14:30:30;37.95;;;30.02;;
15776;SDS011;7989;51.198;6.676;2023-11-21T14:32:59;43.42;;;29.10;;
15776;SDS011;7989;51.198;6.676;2023-11-21T14:35:27;39.95;;;29.67;;
15776;SDS011;7989;51.198;6.676;2023-11-21T14:37:56;39.70;;;29.58;;
15776;SDS011;7989;51.198;6.676;2023-11-21T14:40:24;33.60;;;27.75;;
15776;SDS011;7989;51.198;6.676;2023-11-21T14:42:52;32.25;;;25.48;;
15776;SDS011;7989;51.198;6.676;2023-11-21T14:45:22;31.63;;;25.10;;
15776;SDS011;7989;51.198;6.676;2023-11-21T14:47:51;28.30;;;23.33;;